sensor_id;sensor_type;location;lat;lon;timestamp;P1;durP1;ratioP1;P2;durP2;ratioP2
21036;SDS011;10677;50.942;4.028;2023-09-18T00:01:06;12.07;;;7.57;;
21036;SDS011;10677;50.942;4.028;2023-09-18T00:03:33;9.05;;;6.60;;
21036;SDS011;10677;50.942;4.028;2023-09-18T00:05:58;10.05;;;6.78;;
21036;SDS011;10677;50.942;4.028;2023-09-18T00:08:25;9.35;;;6.80;;
21036;SDS011;10677;50.942;4.028;2023-09-18T00:10:52;9.52;;;7.20;;
21036;SDS011;10677;50.942;4.028;2023-09-18T00:13:19;10.20;;;7.10;;
21036;SDS011;10677;50.942;4.028;2023-09-18T00:15:45;10.45;;;7.65;;
21036;SDS011;10677;50.942;4.028;2023-09-18T00:18:13;13.82;;;8.00;;
21036;SDS011;10677;50.942;4.028;2023-09-18T00:20:42;11.57;;;7.22;;
21036;SDS011;10677;50.942;4.028;2023-09-18T00:23:08;14.93;;;7.53;;
21036;SDS011;10677;50.942;4.028;2023-09-18T00:25:35;12.10;;;7.32;;
21036;SDS011;10677;50.942;4.028;2023-09-18T00:28:01;9.98;;;7.68;;
21036;SDS011;10677;50.942;4.028;2023-09-18T00:30:27;10.32;;;6.80;;
21036;SDS011;10677;50.942;4.028;2023-09-18T00:32:53;10.50;;;6.90;;
21036;SDS011;10677;50.942;4.028;2023-09-18T00:35:19;10.80;;;6.88;;
21036;SDS011;10677;50.942;4.028;2023-09-18T00:37:44;12.48;;;8.15;;
21036;SDS011;10677;50.942;4.028;2023-09-18T00:40:10;15.25;;;8.65;;
21036;SDS011;10677;50.942;4.028;2023-09-18T00:42:36;15.82;;;8.65;;
21036;SDS011;10677;50.942;4.028;2023-09-18T00:45:02;13.20;;;8.07;;
21036;SDS011;10677;50.942;4.028;2023-09-18T00:47:28;12.52;;;8.02;;
21036;SDS011;10677;50.942;4.028;2023-09-18T00:49:54;12.02;;;7.85;;
21036;SDS011;10677;50.942;4.028;2023-09-18T00:52:20;13.50;;;9.10;;
21036;SDS011;10677;50.942;4.028;2023-09-18T00:54:48;15.20;;;8.93;;
21036;SDS011;10677;50.942;4.028;2023-09-18T00:57:14;11.63;;;8.18;;
21036;SDS011;10677;50.942;4.028;2023-09-18T00:59:40;14.25;;;8.40;;
21036;SDS011;10677;50.942;4.028;2023-09-18T01:02:06;12.23;;;8.32;;
21036;SDS011;10677;50.942;4.028;2023-09-18T01:04:33;13.70;;;8.38;;
21036;SDS011;10677;50.942;4.028;2023-09-18T01:06:59;12.23;;;7.63;;
21036;SDS011;10677;50.942;4.028;2023-09-18T01:09:28;11.32;;;7.80;;
21036;SDS011;10677;50.942;4.028;2023-09-18T01:14:44;11.85;;;8.05;;
21036;SDS011;10677;50.942;4.028;2023-09-18T01:17:10;11.88;;;8.40;;
21036;SDS011;10677;50.942;4.028;2023-09-18T01:22:11;8.73;;;6.65;;
21036;SDS011;10677;50.942;4.028;2023-09-18T01:24:40;13.40;;;6.90;;
21036;SDS011;10677;50.942;4.028;2023-09-18T01:27:10;11.00;;;6.40;;
21036;SDS011;10677;50.942;4.028;2023-09-18T01:29:42;11.15;;;7.22;;
21036;SDS011;10677;50.942;4.028;2023-09-18T01:32:08;9.90;;;7.07;;
21036;SDS011;10677;50.942;4.028;2023-09-18T01:34:34;14.10;;;7.00;;
21036;SDS011;10677;50.942;4.028;2023-09-18T01:37:06;9.55;;;6.90;;
21036;SDS011;10677;50.942;4.028;2023-09-18T01:39:34;11.73;;;7.30;;
21036;SDS011;10677;50.942;4.028;2023-09-18T01:42:01;10.68;;;6.38;;
21036;SDS011;10677;50.942;4.028;2023-09-18T01:44:29;9.88;;;6.13;;
21036;SDS011;10677;50.942;4.028;2023-09-18T01:46:56;11.50;;;7.55;;
21036;SDS011;10677;50.942;4.028;2023-09-18T01:49:27;9.60;;;6.63;;
21036;SDS011;10677;50.942;4.028;2023-09-18T01:51:54;9.95;;;6.82;;
21036;SDS011;10677;50.942;4.028;2023-09-18T01:54:20;11.10;;;6.55;;
21036;SDS011;10677;50.942;4.028;2023-09-18T01:56:46;12.65;;;7.03;;
21036;SDS011;10677;50.942;4.028;2023-09-18T01:59:12;8.43;;;6.18;;
21036;SDS011;10677;50.942;4.028;2023-09-18T02:01:37;8.93;;;6.28;;
21036;SDS011;10677;50.942;4.028;2023-09-18T02:04:04;11.65;;;6.22;;
21036;SDS011;10677;50.942;4.028;2023-09-18T02:06:30;11.35;;;5.45;;
21036;SDS011;10677;50.942;4.028;2023-09-18T02:08:55;10.82;;;5.45;;
21036;SDS011;10677;50.942;4.028;2023-09-18T02:11:21;9.57;;;4.93;;
21036;SDS011;10677;50.942;4.028;2023-09-18T02:13:47;8.35;;;4.57;;
21036;SDS011;10677;50.942;4.028;2023-09-18T02:16:12;7.78;;;4.53;;
21036;SDS011;10677;50.942;4.028;2023-09-18T02:18:38;7.55;;;4.20;;
21036;SDS011;10677;50.942;4.028;2023-09-18T02:21:04;6.28;;;4.25;;
21036;SDS011;10677;50.942;4.028;2023-09-18T02:23:29;6.85;;;4.10;;
21036;SDS011;10677;50.942;4.028;2023-09-18T02:25:55;8.02;;;4.10;;
21036;SDS011;10677;50.942;4.028;2023-09-18T02:28:24;10.75;;;5.30;;
21036;SDS011;10677;50.942;4.028;2023-09-18T02:30:51;9.05;;;5.20;;
21036;SDS011;10677;50.942;4.028;2023-09-18T02:33:16;8.77;;;4.63;;
21036;SDS011;10677;50.942;4.028;2023-09-18T02:35:42;7.07;;;4.38;;
21036;SDS011;10677;50.942;4.028;2023-09-18T02:38:08;7.88;;;5.10;;
21036;SDS011;10677;50.942;4.028;2023-09-18T02:40:34;9.40;;;5.28;;
21036;SDS011;10677;50.942;4.028;2023-09-18T02:43:00;11.13;;;5.28;;
21036;SDS011;10677;50.942;4.028;2023-09-18T02:45:27;9.60;;;5.50;;
21036;SDS011;10677;50.942;4.028;2023-09-18T02:47:52;10.73;;;6.07;;
21036;SDS011;10677;50.942;4.028;2023-09-18T02:50:18;10.70;;;5.93;;
21036;SDS011;10677;50.942;4.028;2023-09-18T02:52:44;10.57;;;6.03;;
21036;SDS011;10677;50.942;4.028;2023-09-18T02:55:10;9.05;;;6.25;;
21036;SDS011;10677;50.942;4.028;2023-09-18T02:57:35;9.80;;;6.15;;
21036;SDS011;10677;50.942;4.028;2023-09-18T03:00:01;10.98;;;6.00;;
21036;SDS011;10677;50.942;4.028;2023-09-18T03:02:28;10.82;;;6.45;;
21036;SDS011;10677;50.942;4.028;2023-09-18T03:04:54;11.52;;;6.53;;
21036;SDS011;10677;50.942;4.028;2023-09-18T03:07:19;10.05;;;6.57;;
21036;SDS011;10677;50.942;4.028;2023-09-18T03:09:45;12.35;;;6.93;;
21036;SDS011;10677;50.942;4.028;2023-09-18T03:12:10;10.73;;;7.07;;
21036;SDS011;10677;50.942;4.028;2023-09-18T03:14:36;10.13;;;6.88;;
21036;SDS011;10677;50.942;4.028;2023-09-18T03:17:02;11.45;;;6.78;;
21036;SDS011;10677;50.942;4.028;2023-09-18T03:19:27;9.90;;;7.00;;
21036;SDS011;10677;50.942;4.028;2023-09-18T03:21:53;8.80;;;5.78;;
21036;SDS011;10677;50.942;4.028;2023-09-18T03:24:18;9.23;;;5.95;;
21036;SDS011;10677;50.942;4.028;2023-09-18T03:26:44;9.93;;;6.63;;
21036;SDS011;10677;50.942;4.028;2023-09-18T03:29:11;11.70;;;6.80;;
21036;SDS011;10677;50.942;4.028;2023-09-18T03:31:37;12.00;;;6.57;;
21036;SDS011;10677;50.942;4.028;2023-09-18T03:34:02;9.98;;;5.97;;
21036;SDS011;10677;50.942;4.028;2023-09-18T03:36:28;10.15;;;6.82;;
21036;SDS011;10677;50.942;4.028;2023-09-18T03:38:54;10.63;;;6.32;;
21036;SDS011;10677;50.942;4.028;2023-09-18T03:41:19;8.18;;;5.70;;
21036;SDS011;10677;50.942;4.028;2023-09-18T03:43:45;9.55;;;5.38;;
21036;SDS011;10677;50.942;4.028;2023-09-18T03:46:10;8.52;;;5.30;;
21036;SDS011;10677;50.942;4.028;2023-09-18T03:48:36;10.90;;;5.53;;
21036;SDS011;10677;50.942;4.028;2023-09-18T03:51:05;11.23;;;5.57;;
21036;SDS011;10677;50.942;4.028;2023-09-18T03:53:33;11.27;;;5.50;;
21036;SDS011;10677;50.942;4.028;2023-09-18T03:55:58;7.50;;;4.85;;
21036;SDS011;10677;50.942;4.028;2023-09-18T03:58:25;9.27;;;4.93;;
21036;SDS011;10677;50.942;4.028;2023-09-18T04:00:50;6.50;;;4.70;;
21036;SDS011;10677;50.942;4.028;2023-09-18T04:03:16;7.03;;;4.70;;
21036;SDS011;10677;50.942;4.028;2023-09-18T04:05:42;7.65;;;3.95;;
21036;SDS011;10677;50.942;4.028;2023-09-18T04:08:08;7.10;;;4.25;;
21036;SDS011;10677;50.942;4.028;2023-09-18T04:10:34;8.50;;;3.85;;
21036;SDS011;10677;50.942;4.028;2023-09-18T04:12:59;6.45;;;4.13;;
21036;SDS011;10677;50.942;4.028;2023-09-18T04:15:25;6.78;;;3.67;;
21036;SDS011;10677;50.942;4.028;2023-09-18T04:17:52;7.05;;;3.42;;
21036;SDS011;10677;50.942;4.028;2023-09-18T04:20:18;6.25;;;3.50;;
21036;SDS011;10677;50.942;4.028;2023-09-18T04:22:45;6.45;;;2.97;;
21036;SDS011;10677;50.942;4.028;2023-09-18T04:25:15;4.45;;;2.65;;
21036;SDS011;10677;50.942;4.028;2023-09-18T04:27:41;6.10;;;2.90;;
21036;SDS011;10677;50.942;4.028;2023-09-18T04:30:07;5.18;;;2.17;;
21036;SDS011;10677;50.942;4.028;2023-09-18T04:32:36;5.63;;;2.38;;
21036;SDS011;10677;50.942;4.028;2023-09-18T04:35:03;4.30;;;2.30;;
21036;SDS011;10677;50.942;4.028;2023-09-18T04:37:30;7.10;;;2.35;;
21036;SDS011;10677;50.942;4.028;2023-09-18T04:39:57;3.63;;;1.83;;
21036;SDS011;10677;50.942;4.028;2023-09-18T04:42:23;4.72;;;2.15;;
21036;SDS011;10677;50.942;4.028;2023-09-18T04:44:48;4.57;;;1.85;;
21036;SDS011;10677;50.942;4.028;2023-09-18T04:47:14;5.90;;;2.10;;
21036;SDS011;10677;50.942;4.028;2023-09-18T04:49:40;4.18;;;2.25;;
21036;SDS011;10677;50.942;4.028;2023-09-18T04:52:05;4.88;;;1.83;;
21036;SDS011;10677;50.942;4.028;2023-09-18T04:54:31;3.97;;;1.90;;
21036;SDS011;10677;50.942;4.028;2023-09-18T04:56:57;4.82;;;1.98;;
21036;SDS011;10677;50.942;4.028;2023-09-18T04:59:22;4.45;;;2.03;;
21036;SDS011;10677;50.942;4.028;2023-09-18T05:01:49;6.82;;;2.00;;
21036;SDS011;10677;50.942;4.028;2023-09-18T05:04:15;8.23;;;2.30;;
21036;SDS011;10677;50.942;4.028;2023-09-18T05:06:41;4.32;;;2.00;;
21036;SDS011;10677;50.942;4.028;2023-09-18T05:09:07;5.35;;;2.30;;
21036;SDS011;10677;50.942;4.028;2023-09-18T05:11:32;5.38;;;2.30;;
21036;SDS011;10677;50.942;4.028;2023-09-18T05:13:59;8.07;;;2.50;;
21036;SDS011;10677;50.942;4.028;2023-09-18T05:16:25;6.20;;;1.90;;
21036;SDS011;10677;50.942;4.028;2023-09-18T05:18:50;3.33;;;1.55;;
21036;SDS011;10677;50.942;4.028;2023-09-18T05:21:16;4.85;;;1.60;;
21036;SDS011;10677;50.942;4.028;2023-09-18T05:23:47;7.63;;;2.30;;
21036;SDS011;10677;50.942;4.028;2023-09-18T05:26:13;6.88;;;2.13;;
21036;SDS011;10677;50.942;4.028;2023-09-18T05:28:38;4.30;;;2.38;;
21036;SDS011;10677;50.942;4.028;2023-09-18T05:31:04;4.65;;;2.00;;
21036;SDS011;10677;50.942;4.028;2023-09-18T05:33:30;4.22;;;2.45;;
21036;SDS011;10677;50.942;4.028;2023-09-18T05:35:55;5.78;;;2.58;;
21036;SDS011;10677;50.942;4.028;2023-09-18T05:38:21;5.38;;;1.92;;
21036;SDS011;10677;50.942;4.028;2023-09-18T05:40:47;4.22;;;2.03;;
21036;SDS011;10677;50.942;4.028;2023-09-18T05:43:12;5.63;;;1.80;;
21036;SDS011;10677;50.942;4.028;2023-09-18T05:45:39;6.90;;;2.05;;
21036;SDS011;10677;50.942;4.028;2023-09-18T05:48:05;9.00;;;2.30;;
21036;SDS011;10677;50.942;4.028;2023-09-18T05:50:31;7.10;;;2.50;;
21036;SDS011;10677;50.942;4.028;2023-09-18T05:52:58;7.10;;;6.05;;
21036;SDS011;10677;50.942;4.028;2023-09-18T05:55:25;8.30;;;3.90;;
21036;SDS011;10677;50.942;4.028;2023-09-18T05:57:55;4.00;;;2.17;;
21036;SDS011;10677;50.942;4.028;2023-09-18T06:00:22;6.95;;;2.70;;
21036;SDS011;10677;50.942;4.028;2023-09-18T06:02:49;6.25;;;2.28;;
21036;SDS011;10677;50.942;4.028;2023-09-18T06:05:18;10.30;;;6.40;;
21036;SDS011;10677;50.942;4.028;2023-09-18T06:07:48;10.50;;;3.00;;
21036;SDS011;10677;50.942;4.028;2023-09-18T06:10:14;6.47;;;2.55;;
21036;SDS011;10677;50.942;4.028;2023-09-18T06:12:41;6.30;;;2.10;;
21036;SDS011;10677;50.942;4.028;2023-09-18T06:15:07;5.43;;;2.38;;
21036;SDS011;10677;50.942;4.028;2023-09-18T06:17:40;6.28;;;2.97;;
21036;SDS011;10677;50.942;4.028;2023-09-18T06:20:08;5.38;;;2.17;;
21036;SDS011;10677;50.942;4.028;2023-09-18T06:22:35;5.38;;;2.53;;
21036;SDS011;10677;50.942;4.028;2023-09-18T06:25:05;5.93;;;2.60;;
21036;SDS011;10677;50.942;4.028;2023-09-18T06:27:34;7.43;;;2.50;;
21036;SDS011;10677;50.942;4.028;2023-09-18T06:30:01;4.70;;;2.53;;
21036;SDS011;10677;50.942;4.028;2023-09-18T06:32:27;6.20;;;2.33;;
21036;SDS011;10677;50.942;4.028;2023-09-18T06:34:56;6.68;;;2.60;;
21036;SDS011;10677;50.942;4.028;2023-09-18T06:37:24;5.93;;;2.40;;
21036;SDS011;10677;50.942;4.028;2023-09-18T06:39:51;4.50;;;2.60;;
21036;SDS011;10677;50.942;4.028;2023-09-18T06:42:19;5.85;;;2.67;;
21036;SDS011;10677;50.942;4.028;2023-09-18T06:44:45;8.68;;;2.90;;
21036;SDS011;10677;50.942;4.028;2023-09-18T06:47:14;10.05;;;3.00;;
21036;SDS011;10677;50.942;4.028;2023-09-18T06:49:41;5.32;;;2.72;;
21036;SDS011;10677;50.942;4.028;2023-09-18T06:52:08;5.68;;;2.75;;
21036;SDS011;10677;50.942;4.028;2023-09-18T06:54:34;8.25;;;3.17;;
21036;SDS011;10677;50.942;4.028;2023-09-18T06:57:01;6.85;;;3.10;;
21036;SDS011;10677;50.942;4.028;2023-09-18T06:59:34;5.20;;;2.72;;
21036;SDS011;10677;50.942;4.028;2023-09-18T07:02:00;6.85;;;2.80;;
21036;SDS011;10677;50.942;4.028;2023-09-18T07:04:27;11.50;;;3.45;;
21036;SDS011;10677;50.942;4.028;2023-09-18T07:06:53;9.43;;;3.03;;
21036;SDS011;10677;50.942;4.028;2023-09-18T07:09:19;5.75;;;3.03;;
21036;SDS011;10677;50.942;4.028;2023-09-18T07:11:48;6.85;;;3.20;;
21036;SDS011;10677;50.942;4.028;2023-09-18T07:14:16;11.00;;;3.83;;
21036;SDS011;10677;50.942;4.028;2023-09-18T07:16:42;15.05;;;3.75;;
21036;SDS011;10677;50.942;4.028;2023-09-18T07:19:08;8.73;;;3.88;;
21036;SDS011;10677;50.942;4.028;2023-09-18T07:21:37;8.43;;;3.70;;
21036;SDS011;10677;50.942;4.028;2023-09-18T07:24:03;6.55;;;3.17;;
21036;SDS011;10677;50.942;4.028;2023-09-18T07:26:29;8.35;;;3.58;;
21036;SDS011;10677;50.942;4.028;2023-09-18T07:28:55;9.35;;;3.85;;
21036;SDS011;10677;50.942;4.028;2023-09-18T07:31:21;8.20;;;3.60;;
21036;SDS011;10677;50.942;4.028;2023-09-18T07:33:47;8.65;;;4.10;;
21036;SDS011;10677;50.942;4.028;2023-09-18T07:36:14;10.40;;;4.10;;
21036;SDS011;10677;50.942;4.028;2023-09-18T07:38:40;7.28;;;3.72;;
21036;SDS011;10677;50.942;4.028;2023-09-18T07:41:08;5.95;;;3.33;;
21036;SDS011;10677;50.942;4.028;2023-09-18T07:43:34;6.55;;;3.58;;
21036;SDS011;10677;50.942;4.028;2023-09-18T07:46:10;10.45;;;3.70;;
21036;SDS011;10677;50.942;4.028;2023-09-18T07:48:36;12.35;;;3.90;;
21036;SDS011;10677;50.942;4.028;2023-09-18T07:51:03;5.90;;;3.17;;
21036;SDS011;10677;50.942;4.028;2023-09-18T07:53:29;10.80;;;3.60;;
21036;SDS011;10677;50.942;4.028;2023-09-18T07:56:02;10.25;;;3.58;;
21036;SDS011;10677;50.942;4.028;2023-09-18T07:58:32;7.22;;;3.63;;
21036;SDS011;10677;50.942;4.028;2023-09-18T08:01:04;6.13;;;3.13;;
21036;SDS011;10677;50.942;4.028;2023-09-18T08:09:58;6.85;;;3.08;;
21036;SDS011;10677;50.942;4.028;2023-09-18T08:12:24;7.90;;;3.25;;
21036;SDS011;10677;50.942;4.028;2023-09-18T08:14:58;7.22;;;3.53;;
21036;SDS011;10677;50.942;4.028;2023-09-18T08:17:53;6.45;;;3.53;;
21036;SDS011;10677;50.942;4.028;2023-09-18T08:26:57;7.40;;;3.35;;
21036;SDS011;10677;50.942;4.028;2023-09-18T08:29:23;11.20;;;3.83;;
21036;SDS011;10677;50.942;4.028;2023-09-18T08:31:49;7.43;;;3.67;;
21036;SDS011;10677;50.942;4.028;2023-09-18T08:34:17;15.02;;;3.97;;
21036;SDS011;10677;50.942;4.028;2023-09-18T08:36:43;8.43;;;3.33;;
21036;SDS011;10677;50.942;4.028;2023-09-18T08:39:10;7.35;;;3.70;;
21036;SDS011;10677;50.942;4.028;2023-09-18T08:41:41;10.32;;;4.10;;
21036;SDS011;10677;50.942;4.028;2023-09-18T08:44:08;8.35;;;3.38;;
21036;SDS011;10677;50.942;4.028;2023-09-18T08:46:35;7.32;;;3.60;;
21036;SDS011;10677;50.942;4.028;2023-09-18T08:49:04;9.48;;;3.45;;
21036;SDS011;10677;50.942;4.028;2023-09-18T08:51:32;7.35;;;3.55;;
21036;SDS011;10677;50.942;4.028;2023-09-18T08:53:59;9.90;;;3.65;;
21036;SDS011;10677;50.942;4.028;2023-09-18T08:56:26;6.93;;;3.45;;
21036;SDS011;10677;50.942;4.028;2023-09-18T08:58:53;10.45;;;3.70;;
21036;SDS011;10677;50.942;4.028;2023-09-18T09:01:19;10.88;;;3.80;;
21036;SDS011;10677;50.942;4.028;2023-09-18T09:03:46;7.20;;;3.88;;
21036;SDS011;10677;50.942;4.028;2023-09-18T09:06:12;7.60;;;3.85;;
21036;SDS011;10677;50.942;4.028;2023-09-18T09:08:38;7.55;;;3.60;;
21036;SDS011;10677;50.942;4.028;2023-09-18T09:11:05;7.72;;;3.47;;
21036;SDS011;10677;50.942;4.028;2023-09-18T09:13:31;6.75;;;3.15;;
21036;SDS011;10677;50.942;4.028;2023-09-18T09:16:00;9.82;;;4.05;;
21036;SDS011;10677;50.942;4.028;2023-09-18T09:18:29;5.60;;;3.53;;
21036;SDS011;10677;50.942;4.028;2023-09-18T09:21:01;9.60;;;3.90;;
21036;SDS011;10677;50.942;4.028;2023-09-18T09:23:44;10.25;;;3.95;;
21036;SDS011;10677;50.942;4.028;2023-09-18T09:26:18;8.13;;;3.47;;
21036;SDS011;10677;50.942;4.028;2023-09-18T09:28:47;11.00;;;4.15;;
21036;SDS011;10677;50.942;4.028;2023-09-18T09:31:26;9.55;;;4.50;;
21036;SDS011;10677;50.942;4.028;2023-09-18T09:33:56;8.77;;;3.17;;
21036;SDS011;10677;50.942;4.028;2023-09-18T09:36:23;7.03;;;3.72;;
21036;SDS011;10677;50.942;4.028;2023-09-18T09:38:53;7.45;;;3.90;;
21036;SDS011;10677;50.942;4.028;2023-09-18T09:41:22;8.10;;;3.50;;
21036;SDS011;10677;50.942;4.028;2023-09-18T09:43:48;11.60;;;4.18;;
21036;SDS011;10677;50.942;4.028;2023-09-18T09:46:17;10.15;;;3.75;;
21036;SDS011;10677;50.942;4.028;2023-09-18T09:51:32;8.57;;;4.07;;
21036;SDS011;10677;50.942;4.028;2023-09-18T09:53:59;8.07;;;4.00;;
21036;SDS011;10677;50.942;4.028;2023-09-18T09:59:10;12.60;;;4.68;;
21036;SDS011;10677;50.942;4.028;2023-09-18T10:01:37;12.52;;;4.70;;
21036;SDS011;10677;50.942;4.028;2023-09-18T10:04:12;11.63;;;4.88;;
21036;SDS011;10677;50.942;4.028;2023-09-18T10:06:43;8.63;;;3.90;;
21036;SDS011;10677;50.942;4.028;2023-09-18T10:09:13;7.90;;;4.30;;
21036;SDS011;10677;50.942;4.028;2023-09-18T10:11:42;8.70;;;4.60;;
21036;SDS011;10677;50.942;4.028;2023-09-18T10:14:18;9.85;;;4.80;;
21036;SDS011;10677;50.942;4.028;2023-09-18T10:16:45;8.55;;;5.10;;
21036;SDS011;10677;50.942;4.028;2023-09-18T10:24:41;7.30;;;3.85;;
21036;SDS011;10677;50.942;4.028;2023-09-18T10:27:11;7.65;;;3.90;;
21036;SDS011;10677;50.942;4.028;2023-09-18T10:29:38;7.18;;;3.00;;
21036;SDS011;10677;50.942;4.028;2023-09-18T10:32:06;6.47;;;2.92;;
21036;SDS011;10677;50.942;4.028;2023-09-18T10:34:33;6.82;;;3.17;;
21036;SDS011;10677;50.942;4.028;2023-09-18T10:37:00;5.35;;;3.15;;
21036;SDS011;10677;50.942;4.028;2023-09-18T10:39:38;7.57;;;3.20;;
21036;SDS011;10677;50.942;4.028;2023-09-18T10:42:10;5.18;;;2.90;;
21036;SDS011;10677;50.942;4.028;2023-09-18T10:44:38;8.32;;;2.90;;
21036;SDS011;10677;50.942;4.028;2023-09-18T10:47:06;6.70;;;3.08;;
21036;SDS011;10677;50.942;4.028;2023-09-18T10:49:35;5.97;;;2.53;;
21036;SDS011;10677;50.942;4.028;2023-09-18T10:52:01;5.97;;;2.60;;
21036;SDS011;10677;50.942;4.028;2023-09-18T10:54:29;8.98;;;2.50;;
21036;SDS011;10677;50.942;4.028;2023-09-18T10:56:56;5.40;;;2.78;;
21036;SDS011;10677;50.942;4.028;2023-09-18T10:59:23;5.50;;;3.25;;
21036;SDS011;10677;50.942;4.028;2023-09-18T11:01:49;8.25;;;2.85;;
21036;SDS011;10677;50.942;4.028;2023-09-18T11:04:20;7.53;;;2.60;;
21036;SDS011;10677;50.942;4.028;2023-09-18T11:09:22;5.28;;;2.70;;
21036;SDS011;10677;50.942;4.028;2023-09-18T11:11:54;8.13;;;2.95;;
21036;SDS011;10677;50.942;4.028;2023-09-18T11:17:35;6.07;;;2.75;;
21036;SDS011;10677;50.942;4.028;2023-09-18T11:22:45;4.22;;;2.53;;
21036;SDS011;10677;50.942;4.028;2023-09-18T11:28:14;5.53;;;2.85;;
21036;SDS011;10677;50.942;4.028;2023-09-18T11:30:54;6.28;;;3.08;;
21036;SDS011;10677;50.942;4.028;2023-09-18T11:36:04;5.38;;;2.65;;
21036;SDS011;10677;50.942;4.028;2023-09-18T11:38:56;4.85;;;2.55;;
21036;SDS011;10677;50.942;4.028;2023-09-18T11:41:25;7.32;;;2.95;;
21036;SDS011;10677;50.942;4.028;2023-09-18T11:46:47;4.78;;;2.20;;
21036;SDS011;10677;50.942;4.028;2023-09-18T11:49:21;7.65;;;3.15;;
21036;SDS011;10677;50.942;4.028;2023-09-18T11:51:48;9.45;;;2.30;;
21036;SDS011;10677;50.942;4.028;2023-09-18T11:54:15;5.88;;;2.40;;
21036;SDS011;10677;50.942;4.028;2023-09-18T11:56:42;6.70;;;2.65;;
21036;SDS011;10677;50.942;4.028;2023-09-18T11:59:08;6.05;;;2.40;;
21036;SDS011;10677;50.942;4.028;2023-09-18T12:01:35;8.05;;;2.40;;
21036;SDS011;10677;50.942;4.028;2023-09-18T12:04:04;3.30;;;2.05;;
21036;SDS011;10677;50.942;4.028;2023-09-18T12:06:43;5.90;;;2.30;;
21036;SDS011;10677;50.942;4.028;2023-09-18T12:09:09;4.35;;;2.20;;
21036;SDS011;10677;50.942;4.028;2023-09-18T12:11:38;4.65;;;2.20;;
21036;SDS011;10677;50.942;4.028;2023-09-18T12:14:07;9.43;;;1.85;;
21036;SDS011;10677;50.942;4.028;2023-09-18T12:16:39;6.30;;;2.30;;
21036;SDS011;10677;50.942;4.028;2023-09-18T12:19:05;8.25;;;2.17;;
21036;SDS011;10677;50.942;4.028;2023-09-18T12:21:31;8.75;;;2.35;;
21036;SDS011;10677;50.942;4.028;2023-09-18T12:23:58;5.63;;;2.10;;
21036;SDS011;10677;50.942;4.028;2023-09-18T12:26:24;6.80;;;1.90;;
21036;SDS011;10677;50.942;4.028;2023-09-18T12:28:51;4.60;;;1.98;;
21036;SDS011;10677;50.942;4.028;2023-09-18T12:31:17;4.80;;;2.00;;
21036;SDS011;10677;50.942;4.028;2023-09-18T12:33:43;3.30;;;1.60;;
21036;SDS011;10677;50.942;4.028;2023-09-18T12:36:09;4.07;;;2.20;;
21036;SDS011;10677;50.942;4.028;2023-09-18T12:38:36;6.95;;;2.67;;
21036;SDS011;10677;50.942;4.028;2023-09-18T12:41:03;3.95;;;2.20;;
21036;SDS011;10677;50.942;4.028;2023-09-18T12:43:33;6.07;;;1.85;;
21036;SDS011;10677;50.942;4.028;2023-09-18T12:46:04;5.40;;;1.50;;
21036;SDS011;10677;50.942;4.028;2023-09-18T12:48:30;3.60;;;1.77;;
21036;SDS011;10677;50.942;4.028;2023-09-18T12:51:03;6.20;;;2.10;;
21036;SDS011;10677;50.942;4.028;2023-09-18T12:53:32;4.72;;;1.80;;
21036;SDS011;10677;50.942;4.028;2023-09-18T12:56:11;5.43;;;1.67;;
21036;SDS011;10677;50.942;4.028;2023-09-18T12:58:39;6.43;;;1.70;;
21036;SDS011;10677;50.942;4.028;2023-09-18T13:01:06;4.22;;;1.77;;
21036;SDS011;10677;50.942;4.028;2023-09-18T13:03:42;4.15;;;1.35;;
21036;SDS011;10677;50.942;4.028;2023-09-18T13:06:15;6.90;;;2.05;;
21036;SDS011;10677;50.942;4.028;2023-09-18T13:08:45;5.60;;;1.63;;
21036;SDS011;10677;50.942;4.028;2023-09-18T13:11:12;4.63;;;1.85;;
21036;SDS011;10677;50.942;4.028;2023-09-18T13:13:39;8.10;;;2.03;;
21036;SDS011;10677;50.942;4.028;2023-09-18T13:16:07;6.63;;;1.95;;
21036;SDS011;10677;50.942;4.028;2023-09-18T13:18:36;7.15;;;2.15;;
21036;SDS011;10677;50.942;4.028;2023-09-18T13:21:14;4.57;;;1.50;;
21036;SDS011;10677;50.942;4.028;2023-09-18T13:23:40;2.65;;;1.25;;
21036;SDS011;10677;50.942;4.028;2023-09-18T13:26:06;4.22;;;1.67;;
21036;SDS011;10677;50.942;4.028;2023-09-18T13:28:33;5.72;;;1.50;;
21036;SDS011;10677;50.942;4.028;2023-09-18T13:31:01;3.30;;;1.88;;
21036;SDS011;10677;50.942;4.028;2023-09-18T13:33:31;5.65;;;1.40;;
21036;SDS011;10677;50.942;4.028;2023-09-18T13:35:58;5.47;;;1.85;;
21036;SDS011;10677;50.942;4.028;2023-09-18T13:38:35;6.70;;;1.50;;
21036;SDS011;10677;50.942;4.028;2023-09-18T13:43:59;6.63;;;1.90;;
21036;SDS011;10677;50.942;4.028;2023-09-18T13:46:25;11.20;;;2.10;;
21036;SDS011;10677;50.942;4.028;2023-09-18T13:48:52;7.18;;;1.50;;
21036;SDS011;10677;50.942;4.028;2023-09-18T13:51:17;4.63;;;1.60;;
21036;SDS011;10677;50.942;4.028;2023-09-18T13:53:43;4.25;;;1.40;;
21036;SDS011;10677;50.942;4.028;2023-09-18T13:56:09;3.53;;;1.40;;
21036;SDS011;10677;50.942;4.028;2023-09-18T13:58:36;4.25;;;1.70;;
21036;SDS011;10677;50.942;4.028;2023-09-18T14:01:06;11.73;;;2.45;;
21036;SDS011;10677;50.942;4.028;2023-09-18T14:03:32;9.48;;;3.08;;
21036;SDS011;10677;50.942;4.028;2023-09-18T14:05:59;7.95;;;2.25;;
21036;SDS011;10677;50.942;4.028;2023-09-18T14:08:24;4.38;;;2.22;;
21036;SDS011;10677;50.942;4.028;2023-09-18T14:10:50;5.43;;;1.67;;
21036;SDS011;10677;50.942;4.028;2023-09-18T14:13:16;5.75;;;2.35;;
21036;SDS011;10677;50.942;4.028;2023-09-18T14:15:42;5.40;;;2.42;;
21036;SDS011;10677;50.942;4.028;2023-09-18T14:18:08;4.13;;;1.80;;
21036;SDS011;10677;50.942;4.028;2023-09-18T14:20:34;4.85;;;2.55;;
21036;SDS011;10677;50.942;4.028;2023-09-18T14:22:59;4.50;;;2.38;;
21036;SDS011;10677;50.942;4.028;2023-09-18T14:25:25;7.70;;;2.30;;
21036;SDS011;10677;50.942;4.028;2023-09-18T14:27:51;7.85;;;2.28;;
21036;SDS011;10677;50.942;4.028;2023-09-18T14:30:16;7.75;;;2.33;;
21036;SDS011;10677;50.942;4.028;2023-09-18T14:32:43;4.68;;;2.65;;
21036;SDS011;10677;50.942;4.028;2023-09-18T14:35:09;5.63;;;2.60;;
21036;SDS011;10677;50.942;4.028;2023-09-18T14:37:36;8.60;;;2.60;;
21036;SDS011;10677;50.942;4.028;2023-09-18T14:40:01;7.88;;;2.70;;
21036;SDS011;10677;50.942;4.028;2023-09-18T14:42:27;5.28;;;1.90;;
21036;SDS011;10677;50.942;4.028;2023-09-18T14:44:53;4.53;;;2.17;;
21036;SDS011;10677;50.942;4.028;2023-09-18T14:47:18;3.28;;;1.60;;
21036;SDS011;10677;50.942;4.028;2023-09-18T14:49:44;5.20;;;1.80;;
21036;SDS011;10677;50.942;4.028;2023-09-18T14:52:11;3.10;;;1.42;;
21036;SDS011;10677;50.942;4.028;2023-09-18T14:54:41;5.22;;;1.38;;
21036;SDS011;10677;50.942;4.028;2023-09-18T14:57:06;3.70;;;1.73;;
21036;SDS011;10677;50.942;4.028;2023-09-18T14:59:32;2.78;;;1.20;;
21036;SDS011;10677;50.942;4.028;2023-09-18T15:01:58;3.70;;;1.40;;
21036;SDS011;10677;50.942;4.028;2023-09-18T15:04:23;3.75;;;1.20;;
21036;SDS011;10677;50.942;4.028;2023-09-18T15:06:49;4.35;;;1.67;;
21036;SDS011;10677;50.942;4.028;2023-09-18T15:09:15;4.22;;;1.65;;
21036;SDS011;10677;50.942;4.028;2023-09-18T15:11:42;8.00;;;1.40;;
21036;SDS011;10677;50.942;4.028;2023-09-18T15:14:07;3.00;;;1.17;;
21036;SDS011;10677;50.942;4.028;2023-09-18T15:16:34;2.38;;;1.17;;
21036;SDS011;10677;50.942;4.028;2023-09-18T15:19:00;4.18;;;1.30;;
21036;SDS011;10677;50.942;4.028;2023-09-18T15:21:29;3.92;;;1.60;;
21036;SDS011;10677;50.942;4.028;2023-09-18T15:23:54;5.78;;;1.23;;
21036;SDS011;10677;50.942;4.028;2023-09-18T15:26:21;2.47;;;1.27;;
21036;SDS011;10677;50.942;4.028;2023-09-18T15:28:46;2.13;;;1.38;;
21036;SDS011;10677;50.942;4.028;2023-09-18T15:31:12;5.97;;;1.40;;
21036;SDS011;10677;50.942;4.028;2023-09-18T15:33:38;3.03;;;1.15;;
21036;SDS011;10677;50.942;4.028;2023-09-18T15:36:05;5.40;;;1.70;;